Time;durP1;ratioP1;P1;durP2;ratioP2;P2;SDS_P1;SDS_P2;PMS_P1;PMS_P2;Temp;Humidity;BMP_temperature;BMP_pressure;BME280_temperature;BME280_humidity;BME280_pressure;Samples;Min_cycle;Max_cycle;Signal;HPM_P1;HPM_P2
2022/05/20 00:01:24;;;;;;;6.47;3.30;;;8.90;99.90;;;;;;4386469;28;657698;-68
2022/05/20 00:04:12;;;;;;;6.57;3.07;;;8.80;99.90;;;;;;4371695;28;657669;-67
2022/05/20 00:06:59;;;;;;;8.10;3.33;;;8.90;99.90;;;;;;4392256;28;656528;-67
2022/05/20 00:09:46;;;;;;;5.23;3.23;;;8.80;99.90;;;;;;4372443;28;656444;-67
2022/05/20 00:12:33;;;;;;;7.25;3.42;;;8.80;99.90;;;;;;4390680;28;656963;-67
2022/05/20 00:15:21;;;;;;;8.03;3.87;;;8.70;99.90;;;;;;4371191;28;656435;-68
2022/05/20 00:18:10;;;;;;;7.10;3.90;;;8.80;99.90;;;;;;4390359;28;656806;-68
2022/05/20 00:20:59;;;;;;;9.85;3.95;;;8.60;99.90;;;;;;4363793;28;657063;-68
2022/05/20 00:23:46;;;;;;;10.07;3.93;;;8.60;99.90;;;;;;4364064;28;656534;-68
2022/05/20 00:26:33;;;;;;;11.00;4.13;;;8.50;99.90;;;;;;4386350;28;658073;-68
2022/05/20 00:29:20;;;;;;;7.50;4.00;;;8.40;99.90;;;;;;4368241;28;658715;-67
2022/05/20 00:32:08;;;;;;;13.93;4.70;;;8.30;99.90;;;;;;4373509;28;657520;-68
2022/05/20 00:34:56;;;;;;;9.73;4.30;;;8.30;99.90;;;;;;4350195;28;657679;-68
2022/05/20 00:37:44;;;;;;;9.43;4.50;;;8.30;99.90;;;;;;4372778;28;657223;-68
2022/05/20 00:40:31;;;;;;;9.43;4.40;;;8.30;99.90;;;;;;4352686;28;656369;-67
2022/05/20 00:43:27;;;;;;;11.37;4.53;;;8.30;99.90;;;;;;4378239;28;657191;-68
2022/05/20 00:46:16;;;;;;;9.70;4.40;;;8.20;99.90;;;;;;4365690;28;658025;-68
2022/05/20 00:49:05;;;;;;;10.77;4.00;;;8.20;99.90;;;;;;4354688;28;656746;-68
2022/05/20 00:51:54;;;;;;;10.77;3.90;;;8.20;99.90;;;;;;4353491;28;658307;-67
2022/05/20 00:54:43;;;;;;;10.38;4.18;;;8.10;99.90;;;;;;4352509;28;658324;-67
2022/05/20 00:57:33;;;;;;;7.13;4.00;;;8.10;99.90;;;;;;4364448;28;658019;-68
2022/05/20 01:00:22;;;;;;;12.67;4.33;;;8.10;99.90;;;;;;4375685;28;656610;-68
2022/05/20 01:03:10;;;;;;;10.40;4.20;;;8.10;99.90;;;;;;4388435;28;657956;-67
2022/05/20 01:05:57;;;;;;;12.30;4.23;;;8.10;99.90;;;;;;4367201;28;657479;-67
2022/05/20 01:08:46;;;;;;;9.07;3.93;;;8.10;99.90;;;;;;4385996;28;657579;-68
2022/05/20 01:11:34;;;;;;;9.57;4.23;;;7.90;99.90;;;;;;4389868;28;656738;-67
2022/05/20 01:14:21;;;;;;;13.50;4.33;;;7.90;99.90;;;;;;4369875;28;656481;-67
2022/05/20 01:17:09;;;;;;;7.87;3.83;;;7.90;99.90;;;;;;4385904;28;658267;-68
2022/05/20 01:19:56;;;;;;;7.37;4.13;;;7.90;99.90;;;;;;4369127;28;656564;-68
2022/05/20 01:23:00;;;;;;;10.37;4.23;;;7.90;99.90;;;;;;4375106;28;657467;-68
2022/05/20 01:25:48;;;;;;;6.30;3.47;;;7.90;99.90;;;;;;4334211;28;658467;-68
2022/05/20 01:28:35;;;;;;;7.37;3.83;;;7.90;99.90;;;;;;4364313;28;656572;-67
2022/05/20 01:31:22;;;;;;;9.07;3.63;;;7.90;99.90;;;;;;4387740;28;657795;-68
2022/05/20 01:34:10;;;;;;;10.77;3.83;;;7.90;99.90;;;;;;4375714;28;657372;-67
2022/05/20 01:36:57;;;;;;;6.70;3.27;;;8.00;99.90;;;;;;4380597;28;658595;-68
2022/05/20 01:39:46;;;;;;;9.10;3.77;;;8.00;99.90;;;;;;4386091;28;656853;-67
2022/05/20 01:42:36;;;;;;;8.17;3.87;;;8.10;99.90;;;;;;4374004;28;658035;-67
2022/05/20 01:45:26;;;;;;;13.67;3.27;;;8.00;99.90;;;;;;4358926;28;657390;-68
2022/05/20 01:48:19;;;;;;;7.17;4.07;;;8.10;99.90;;;;;;4375462;28;657959;-68
2022/05/20 01:51:09;;;;;;;14.67;3.50;;;8.10;99.90;;;;;;4386089;28;656858;-68
2022/05/20 01:53:58;;;;;;;9.33;4.10;;;8.10;99.90;;;;;;4378556;28;657501;-68
2022/05/20 01:56:49;;;;;;;7.07;3.50;;;8.20;99.90;;;;;;4388211;28;656677;-68
2022/05/20 01:59:38;;;;;;;11.67;4.37;;;8.20;99.90;;;;;;4383562;28;657059;-67
2022/05/20 02:02:27;;;;;;;8.53;3.77;;;8.30;99.90;;;;;;4377234;28;657835;-67
2022/05/20 02:05:17;;;;;;;11.33;3.83;;;8.30;99.90;;;;;;4399051;28;657666;-68
2022/05/20 02:08:10;;;;;;;7.40;3.70;;;8.40;99.90;;;;;;4385731;28;658131;-68
2022/05/20 02:10:58;;;;;;;7.63;3.50;;;8.40;99.90;;;;;;4398513;28;657146;-67
2022/05/20 02:13:48;;;;;;;6.27;3.10;;;8.60;99.90;;;;;;4408872;28;656694;-67
2022/05/20 02:16:37;;;;;;;9.23;3.42;;;8.70;99.90;;;;;;4402318;28;656922;-68
2022/05/20 02:19:26;;;;;;;6.17;2.93;;;8.70;99.90;;;;;;4417705;28;656569;-68
2022/05/20 02:22:16;;;;;;;9.87;3.37;;;8.80;99.90;;;;;;4393047;28;657044;-68
2022/05/20 02:25:05;;;;;;;4.38;3.05;;;8.80;99.90;;;;;;4398706;28;657697;-68
2022/05/20 02:27:54;;;;;;;6.30;2.63;;;8.90;99.90;;;;;;4399363;28;657213;-68
2022/05/20 02:30:43;;;;;;;8.67;2.80;;;8.70;99.90;;;;;;4404025;28;657992;-68
2022/05/20 02:33:30;;;;;;;8.18;2.70;;;8.90;99.90;;;;;;4392035;28;656527;-68
2022/05/20 02:36:22;;;;;;;8.17;3.33;;;8.90;99.90;;;;;;4421236;28;657103;-68
2022/05/20 02:39:16;;;;;;;5.17;3.00;;;8.80;99.90;;;;;;4419567;28;657979;-67
2022/05/20 02:42:03;;;;;;;4.53;2.73;;;8.70;99.90;;;;;;4397768;28;657727;-67
2022/05/20 02:44:50;;;;;;;6.93;2.73;;;8.80;99.90;;;;;;4402230;28;656673;-67
2022/05/20 02:47:39;;;;;;;10.63;3.00;;;8.70;99.90;;;;;;4429164;28;657724;-67
2022/05/20 02:50:26;;;;;;;6.70;2.90;;;8.60;99.90;;;;;;4400328;28;657726;-67
2022/05/20 02:53:13;;;;;;;6.40;2.60;;;8.60;99.90;;;;;;4420555;28;657362;-67
2022/05/20 02:56:03;;;;;;;5.03;3.00;;;8.60;99.90;;;;;;4402415;28;656397;-67
2022/05/20 03:05:02;;;;;;;7.80;3.40;;;8.50;99.90;;;;;;4380902;28;657680;-67
2022/05/20 03:07:49;;;;;;;7.67;3.40;;;8.40;99.90;;;;;;4428685;28;656121;-67
2022/05/20 03:10:36;;;;;;;9.87;3.27;;;8.50;99.90;;;;;;4405650;28;657217;-67
2022/05/20 03:13:23;;;;;;;5.67;3.00;;;8.50;99.90;;;;;;4419714;28;656882;-67
2022/05/20 03:16:10;;;;;;;7.87;2.70;;;8.60;99.90;;;;;;4405367;28;657468;-67
2022/05/20 03:18:57;;;;;;;7.07;3.23;;;8.70;99.90;;;;;;4409451;28;658245;-67
2022/05/20 03:21:46;;;;;;;6.77;3.33;;;8.80;99.90;;;;;;4419723;28;657282;-67
2022/05/20 03:24:34;;;;;;;12.47;3.80;;;8.70;99.90;;;;;;4419001;28;656653;-67
2022/05/20 03:27:21;;;;;;;9.37;3.73;;;8.70;99.90;;;;;;4400416;28;657747;-67
2022/05/20 03:30:09;;;;;;;6.15;3.63;;;8.60;99.90;;;;;;4422751;28;656689;-67
2022/05/20 03:32:57;;;;;;;6.13;3.47;;;8.70;99.90;;;;;;4401428;28;657293;-67
2022/05/20 03:35:44;;;;;;;9.43;3.70;;;8.70;99.90;;;;;;4421546;28;656572;-67
2022/05/20 03:38:33;;;;;;;8.63;3.20;;;8.80;99.90;;;;;;4385288;28;656914;-67
2022/05/20 03:41:20;;;;;;;6.90;3.22;;;8.90;99.90;;;;;;4393714;28;656878;-67
2022/05/20 03:44:09;;;;;;;6.17;2.60;;;9.00;99.90;;;;;;4420951;28;656721;-67
2022/05/20 03:46:56;;;;;;;5.15;2.63;;;9.40;99.90;;;;;;4397687;28;657204;-67
2022/05/20 03:49:43;;;;;;;8.17;3.13;;;9.50;99.90;;;;;;4421289;28;656285;-67
2022/05/20 03:52:31;;;;;;;9.30;2.97;;;9.60;99.90;;;;;;4399806;28;656721;-67
2022/05/20 03:55:19;;;;;;;7.07;2.80;;;9.80;99.90;;;;;;4412600;28;657075;-67
2022/05/20 03:58:06;;;;;;;7.53;2.53;;;9.70;99.90;;;;;;4384855;28;656423;-67
2022/05/20 04:03:58;;;;;;;5.43;3.00;;;10.60;99.90;;;;;;4383322;28;657864;-67
2022/05/20 04:06:45;;;;;;;7.27;2.10;;;10.70;99.90;;;;;;4400966;28;657727;-67
2022/05/20 04:09:33;;;;;;;5.23;2.10;;;11.20;99.90;;;;;;4419796;28;658480;-67
2022/05/20 04:12:25;;;;;;;16.60;2.30;;;11.60;95.90;;;;;;4416374;28;657475;-67
2022/05/20 04:15:14;;;;;;;6.50;2.93;;;11.50;99.90;;;;;;4393211;28;659172;-67
2022/05/20 04:18:01;;;;;;;9.33;2.50;;;11.70;97.60;;;;;;4390186;28;657880;-67
2022/05/20 04:20:49;;;;;;;7.37;2.40;;;11.90;91.50;;;;;;4423650;28;658189;-67
2022/05/20 04:23:36;;;;;;;3.90;2.03;;;11.80;99.90;;;;;;4401676;28;658302;-67
2022/05/20 04:26:23;;;;;;;7.20;2.33;;;11.90;99.90;;;;;;4420380;28;658954;-67
2022/05/20 04:29:12;;;;;;;5.10;2.30;;;12.00;99.90;;;;;;4404281;28;657277;-67
2022/05/20 04:31:59;;;;;;;9.43;2.40;;;12.30;83.00;;;;;;4417645;28;657599;-67
2022/05/20 04:34:46;;;;;;;3.53;2.00;;;12.30;99.90;;;;;;4402145;28;657806;-67
2022/05/20 04:37:33;;;;;;;9.87;2.47;;;12.50;91.90;;;;;;4419873;28;658012;-67
2022/05/20 04:40:20;;;;;;;6.30;2.20;;;12.80;81.90;;;;;;4401720;28;657659;-67
2022/05/20 04:49:17;;;;;;;6.00;2.40;;;13.60;76.20;;;;;;4399589;28;659474;-67
2022/05/20 04:52:05;;;;;;;5.17;2.87;;;13.90;69.60;;;;;;4419084;28;658074;-67
2022/05/20 04:54:52;;;;;;;5.33;2.57;;;14.00;68.90;;;;;;4400790;28;659624;-68
2022/05/20 04:57:45;;;;;;;5.10;2.40;;;14.30;67.80;;;;;;4409879;28;658682;-67
2022/05/20 05:00:33;;;;;;;10.20;2.73;;;14.60;64.50;;;;;;4398223;28;657564;-67
2022/05/20 05:03:23;;;;;;;5.53;2.83;;;14.70;65.10;;;;;;4386735;28;659130;-67
2022/05/20 05:06:11;;;;;;;10.80;2.73;;;14.90;62.10;;;;;;4392329;28;657615;-68
2022/05/20 05:08:58;;;;;;;10.40;2.70;;;15.10;62.20;;;;;;4399731;28;658632;-67
2022/05/20 05:11:46;;;;;;;8.77;2.47;;;15.30;61.20;;;;;;4398021;28;658870;-67
2022/05/20 05:14:36;;;;;;;5.93;2.50;;;15.50;62.30;;;;;;4421115;28;658082;-67
2022/05/20 05:20:27;;;;;;;5.88;2.30;;;15.90;58.00;;;;;;4391562;28;658880;-67
2022/05/20 05:23:15;;;;;;;5.13;2.23;;;16.20;57.50;;;;;;4419710;28;658448;-67
2022/05/20 05:26:02;;;;;;;3.67;2.13;;;16.40;54.80;;;;;;4418511;28;657857;-67
2022/05/20 05:28:50;;;;;;;3.73;1.93;;;16.40;56.20;;;;;;4403471;28;657823;-67
2022/05/20 05:31:37;;;;;;;6.57;2.20;;;16.50;54.20;;;;;;4405345;28;658904;-67
2022/05/20 05:34:25;;;;;;;7.53;2.53;;;16.30;54.60;;;;;;4418255;28;659363;-67
2022/05/20 05:37:14;;;;;;;9.97;2.40;;;16.30;56.50;;;;;;4417547;28;659219;-67
2022/05/20 05:40:01;;;;;;;10.43;2.40;;;16.30;55.30;;;;;;4396485;28;657208;-67
2022/05/20 05:42:48;;;;;;;7.70;2.70;;;16.30;56.40;;;;;;4419415;28;659050;-66
2022/05/20 05:45:35;;;;;;;6.77;2.40;;;16.30;56.10;;;;;;4396973;28;657578;-66
2022/05/20 05:48:23;;;;;;;16.27;2.80;;;16.30;55.50;;;;;;4395832;28;657118;-68
2022/05/20 05:51:10;;;;;;;8.23;2.10;;;16.40;55.20;;;;;;4388475;28;658811;-67
2022/05/20 05:53:59;;;;;;;6.57;2.23;;;16.60;55.80;;;;;;4412843;28;657948;-67
2022/05/20 05:56:46;;;;;;;8.80;2.50;;;16.80;54.60;;;;;;4393454;28;657396;-67
2022/05/20 05:59:33;;;;;;;4.75;2.28;;;16.90;54.80;;;;;;4417528;28;658023;-67
2022/05/20 06:02:21;;;;;;;5.33;2.30;;;17.10;53.30;;;;;;4381824;28;658087;-67
2022/05/20 06:05:09;;;;;;;5.30;1.97;;;17.30;53.70;;;;;;4415649;28;658364;-67
2022/05/20 06:07:56;;;;;;;5.43;2.60;;;17.40;52.70;;;;;;4394792;28;657578;-67
2022/05/20 06:10:45;;;;;;;9.27;2.83;;;17.60;53.30;;;;;;4416122;28;658869;-67
2022/05/20 06:13:32;;;;;;;9.20;2.97;;;17.70;53.60;;;;;;4398544;28;659052;-67
2022/05/20 06:16:21;;;;;;;9.33;2.70;;;18.00;51.80;;;;;;4412156;28;658091;-67
2022/05/20 06:19:08;;;;;;;7.67;2.80;;;18.10;51.30;;;;;;4401969;28;657883;-67
2022/05/20 06:21:55;;;;;;;8.90;2.87;;;18.30;51.80;;;;;;4398910;28;657939;-67
2022/05/20 06:24:42;;;;;;;5.80;2.03;;;18.00;1.00;;;;;;4424908;28;658391;-67
2022/05/20 06:27:31;;;;;;;7.03;2.60;;;17.90;1.00;;;;;;4404568;28;657007;-68
2022/05/20 06:30:20;;;;;;;12.37;2.80;;;17.90;1.00;;;;;;4398158;28;656869;-67
2022/05/20 06:33:07;;;;;;;12.50;2.93;;;18.00;1.00;;;;;;4399848;28;658926;-67
2022/05/20 06:42:05;;;;;;;11.43;3.03;;;18.20;1.00;;;;;;4390499;28;657750;-67
2022/05/20 06:44:54;;;;;;;12.73;3.10;;;18.30;1.00;;;;;;4395030;28;658972;-67
2022/05/20 06:47:41;;;;;;;9.67;3.10;;;18.40;1.00;;;;;;4399545;28;658600;-67
2022/05/20 06:50:28;;;;;;;8.13;2.83;;;18.40;1.00;;;;;;4417779;28;657723;-67
2022/05/20 06:53:15;;;;;;;13.07;3.00;;;18.50;1.00;;;;;;4401355;28;656414;-68
2022/05/20 06:56:03;;;;;;;7.20;2.43;;;18.50;1.00;;;;;;4409230;28;659663;-67
2022/05/20 06:58:50;;;;;;;5.37;2.70;;;18.50;1.00;;;;;;4411442;28;656467;-67
2022/05/20 07:01:39;;;;;;;5.43;2.70;;;18.60;1.00;;;;;;4419459;28;656979;-67
2022/05/20 07:04:26;;;;;;;10.95;2.50;;;18.70;1.00;;;;;;4394427;28;656332;-67
2022/05/20 07:07:13;;;;;;;5.37;2.40;;;18.90;1.00;;;;;;4413311;28;658027;-67
2022/05/20 07:10:00;;;;;;;11.10;2.40;;;18.90;1.00;;;;;;4394945;28;656398;-67
2022/05/20 07:12:48;;;;;;;6.23;2.60;;;19.20;1.00;;;;;;4425053;28;658556;-68
2022/05/20 07:15:35;;;;;;;5.03;2.40;;;19.40;1.00;;;;;;4412240;28;656625;-67
2022/05/20 07:18:24;;;;;;;9.43;2.80;;;19.60;1.00;;;;;;4428383;28;657062;-67
2022/05/20 07:21:11;;;;;;;6.57;2.60;;;19.60;1.00;;;;;;4407594;28;656819;-67
2022/05/20 07:24:00;;;;;;;9.50;2.30;;;19.60;1.00;;;;;;4412477;28;657436;-68
2022/05/20 07:26:47;;;;;;;6.93;2.23;;;19.80;1.00;;;;;;4400900;28;657776;-67
2022/05/20 07:29:35;;;;;;;4.53;2.40;;;19.70;1.00;;;;;;4418741;28;657295;-67
2022/05/20 07:32:23;;;;;;;5.50;2.23;;;19.70;1.00;;;;;;4428844;28;657987;-67
2022/05/20 07:35:12;;;;;;;11.67;2.33;;;19.90;1.00;;;;;;4418456;28;657189;-67
2022/05/20 07:37:59;;;;;;;17.10;2.10;;;20.10;1.00;;;;;;4420586;28;657076;-67
2022/05/20 07:40:46;;;;;;;6.83;2.37;;;20.30;1.00;;;;;;4408437;28;657292;-67
2022/05/20 07:43:33;;;;;;;5.97;2.00;;;20.20;1.00;;;;;;4423725;28;656477;-67
2022/05/20 07:46:21;;;;;;;6.47;1.70;;;20.10;1.00;;;;;;4392999;28;656665;-68
2022/05/20 07:49:08;;;;;;;7.50;1.90;;;20.20;1.00;;;;;;4402170;28;657190;-67
2022/05/20 07:51:57;;;;;;;7.70;2.27;;;20.20;1.00;;;;;;4399283;28;656568;-67
2022/05/20 07:54:44;;;;;;;8.07;2.40;;;20.20;1.00;;;;;;4413440;28;656463;-68
2022/05/20 07:57:31;;;;;;;10.53;2.37;;;20.30;1.00;;;;;;4403423;28;656726;-67
2022/05/20 08:00:20;;;;;;;6.33;2.07;;;20.40;1.00;;;;;;4417872;28;657486;-68
2022/05/20 08:03:07;;;;;;;8.50;2.70;;;20.40;1.00;;;;;;4395369;28;657666;-67
2022/05/20 08:05:53;;;;;;;8.97;2.67;;;20.30;1.00;;;;;;4424752;28;657196;-67
2022/05/20 08:08:42;;;;;;;7.80;2.23;;;20.30;1.00;;;;;;4396079;28;656443;-68
2022/05/20 08:11:29;;;;;;;7.97;2.27;;;20.50;1.00;;;;;;4417696;28;656600;-68
2022/05/20 08:14:16;;;;;;;10.63;2.57;;;20.80;1.00;;;;;;4405287;28;656520;-67
2022/05/20 08:17:04;;;;;;;6.23;2.23;;;21.00;1.00;;;;;;4420346;28;658946;-68
2022/05/20 08:19:51;;;;;;;13.73;2.23;;;21.00;1.00;;;;;;4400949;28;656358;-67
2022/05/20 08:22:38;;;;;;;7.63;2.23;;;20.90;1.00;;;;;;4429622;28;659238;-67
2022/05/20 08:25:27;;;;;;;6.10;2.13;;;21.40;1.00;;;;;;4401648;28;656519;-67
2022/05/20 08:28:14;;;;;;;10.03;2.27;;;21.90;1.00;;;;;;4426877;28;656316;-67
2022/05/20 08:31:01;;;;;;;4.73;2.23;;;22.00;1.00;;;;;;4404788;28;658002;-67
2022/05/20 08:33:50;;;;;;;10.47;2.37;;;21.80;1.00;;;;;;4422687;28;656990;-67
2022/05/20 08:36:38;;;;;;;5.83;2.10;;;21.70;1.00;;;;;;4392785;28;658347;-68
2022/05/20 08:39:27;;;;;;;6.77;2.40;;;21.70;1.00;;;;;;4404082;28;657166;-68
2022/05/20 08:42:17;;;;;;;9.37;2.50;;;21.30;1.00;;;;;;4410156;28;657277;-68
2022/05/20 08:45:05;;;;;;;4.77;2.53;;;21.60;1.00;;;;;;4395510;28;656568;-68
2022/05/20 08:47:53;;;;;;;10.30;2.63;;;22.40;1.00;;;;;;4401029;28;657483;-67
2022/05/20 08:50:42;;;;;;;8.27;2.57;;;22.70;1.00;;;;;;4411687;28;657387;-67
2022/05/20 08:53:31;;;;;;;2.93;1.80;;;22.70;1.00;;;;;;4419178;28;656642;-67
2022/05/20 08:56:20;;;;;;;8.90;2.03;;;22.30;1.00;;;;;;4425330;28;656572;-67
2022/05/20 08:59:10;;;;;;;5.50;2.20;;;22.40;1.00;;;;;;4407885;28;657208;-67
2022/05/20 09:01:57;;;;;;;8.03;2.63;;;22.70;1.00;;;;;;4386608;28;656970;-67
2022/05/20 09:04:44;;;;;;;6.47;2.20;;;22.80;1.00;;;;;;4396824;28;656883;-67
2022/05/20 09:07:32;;;;;;;12.37;1.90;;;22.60;1.00;;;;;;4377946;28;656229;-67
2022/05/20 09:10:28;;;;;;;6.43;2.73;;;22.70;1.00;;;;;;4401636;28;657902;-67
2022/05/20 09:13:20;;;;;;;6.13;2.17;;;22.50;1.00;;;;;;4373804;28;656618;-67
2022/05/20 09:16:07;;;;;;;8.77;2.50;;;22.70;1.00;;;;;;4378773;28;657744;-68
2022/05/20 09:19:05;;;;;;;7.63;2.50;;;22.90;1.00;;;;;;4409780;28;656853;-67
2022/05/20 09:22:00;;;;;;;6.53;2.30;;;23.50;1.00;;;;;;4375427;28;657510;-67
2022/05/20 09:24:48;;;;;;;7.73;2.70;;;23.80;1.00;;;;;;4368934;28;657664;-67
2022/05/20 09:27:36;;;;;;;5.93;2.53;;;23.90;1.00;;;;;;4409507;28;657527;-67
2022/05/20 09:30:24;;;;;;;8.43;2.83;;;23.80;1.00;;;;;;4400254;28;656824;-67
2022/05/20 09:33:16;;;;;;;6.40;2.60;;;23.60;1.00;;;;;;4386490;28;656434;-67
2022/05/20 09:36:03;;;;;;;8.03;2.13;;;23.80;1.00;;;;;;4388579;28;656887;-67
2022/05/20 09:38:50;;;;;;;8.90;2.80;;;23.70;1.00;;;;;;4379636;28;656397;-67
2022/05/20 09:41:45;;;;;;;5.73;3.03;;;23.20;1.00;;;;;;4400702;28;657532;-66
2022/05/20 09:44:34;;;;;;;10.77;2.80;;;23.30;1.00;;;;;;4378403;28;656814;-66
2022/05/20 09:47:25;;;;;;;8.57;2.47;;;23.10;1.00;;;;;;4385101;28;658771;-67
2022/05/20 09:50:23;;;;;;;12.00;2.90;;;23.20;1.00;;;;;;4380194;28;657287;-67
2022/05/20 09:53:15;;;;;;;9.70;2.70;;;23.80;1.00;;;;;;4359286;28;658093;-67
2022/05/20 09:56:14;;;;;;;6.53;2.47;;;23.80;1.00;;;;;;4388071;28;657988;-67
2022/05/20 09:59:12;;;;;;;4.97;2.40;;;23.90;1.00;;;;;;4359314;28;656600;-67
2022/05/20 10:02:03;;;;;;;6.80;2.63;;;24.40;1.00;;;;;;4402082;28;656775;-67
2022/05/20 10:05:08;;;;;;;9.67;2.57;;;24.90;1.00;;;;;;4398255;28;656618;-67
2022/05/20 10:08:10;;;;;;;5.03;2.37;;;25.10;1.00;;;;;;4375477;28;656820;-67
2022/05/20 10:11:03;;;;;;;12.50;2.67;;;25.40;1.00;;;;;;4369782;28;656654;-67
2022/05/20 10:13:53;;;;;;;11.43;3.00;;;25.00;1.00;;;;;;4379816;28;658083;-67
2022/05/20 10:16:45;;;;;;;8.93;2.60;;;25.20;1.00;;;;;;4392782;28;657758;-67
2022/05/20 10:19:37;;;;;;;6.57;2.40;;;24.50;1.00;;;;;;4400997;28;657634;-67
2022/05/20 10:22:27;;;;;;;8.13;2.40;;;24.40;1.00;;;;;;4419536;28;656770;-67
2022/05/20 10:25:21;;;;;;;8.97;2.60;;;25.10;1.00;;;;;;4418348;28;657143;-68
2022/05/20 10:34:32;;;;;;;9.17;2.23;;;24.60;1.00;;;;;;4391586;28;657090;-67
2022/05/20 10:37:23;;;;;;;7.27;2.43;;;24.70;1.00;;;;;;4413349;28;656839;-67
2022/05/20 10:40:33;;;;;;;13.03;2.77;;;25.10;1.00;;;;;;4375943;28;656236;-67
2022/05/20 10:48:34;;;;;;;7.53;2.80;;;25.20;1.00;;;;;;4374885;28;657365;-67
2022/05/20 10:49:59;;;;;;;11.00;2.50;;;25.40;1.00;;;;;;4401534;28;657128;-67
2022/05/20 10:52:58;;;;;;;13.23;2.30;;;25.00;1.00;;;;;;4364070;28;657856;-67
2022/05/20 10:55:57;;;;;;;8.23;2.50;;;25.20;1.00;;;;;;4382513;28;657789;-67
2022/05/20 10:59:06;;;;;;;5.83;2.20;;;25.00;1.00;;;;;;4401124;28;656674;-67
2022/05/20 11:01:59;;;;;;;6.20;2.30;;;24.90;1.00;;;;;;4396652;28;656609;-67
2022/05/20 11:04:54;;;;;;;7.73;1.93;;;25.60;1.00;;;;;;4405580;28;656629;-67
2022/05/20 11:07:48;;;;;;;7.10;2.20;;;25.00;1.00;;;;;;4401705;28;656695;-67
2022/05/20 11:10:56;;;;;;;8.77;2.67;;;24.60;1.00;;;;;;4384376;28;657629;-68
2022/05/20 11:14:00;;;;;;;9.60;2.27;;;24.90;1.00;;;;;;4398898;28;656946;-67
2022/05/20 11:16:59;;;;;;;4.53;2.00;;;24.50;1.00;;;;;;4381048;28;657389;-68
2022/05/20 11:20:03;;;;;;;3.73;1.93;;;25.00;1.00;;;;;;4402630;28;656468;-68
2022/05/20 11:23:23;;;;;;;5.10;2.10;;;25.50;1.00;;;;;;4389363;28;656708;-67
2022/05/20 11:26:42;;;;;;;5.73;2.17;;;25.00;1.00;;;;;;4398856;28;656976;-67
2022/05/20 11:29:56;;;;;;;5.28;2.10;;;25.90;1.00;;;;;;4397382;28;656413;-67
2022/05/20 11:33:18;;;;;;;7.78;2.08;;;26.20;1.00;;;;;;4404039;28;657717;-67
2022/05/20 11:36:15;;;;;;;3.53;1.65;;;26.20;1.00;;;;;;4373460;28;656231;-67
2022/05/20 11:39:20;;;;;;;4.10;1.80;;;25.90;1.00;;;;;;4380097;28;656868;-67
2022/05/20 11:42:17;;;;;;;3.42;1.40;;;25.80;1.00;;;;;;4380098;28;656582;-67
2022/05/20 11:45:11;;;;;;;4.25;1.90;;;25.90;1.00;;;;;;4401831;28;656572;-67
2022/05/20 11:48:25;;;;;;;6.13;1.80;;;25.70;1.00;;;;;;4403275;28;657829;-67
2022/05/20 11:51:38;;;;;;;4.22;1.90;;;25.80;1.00;;;;;;4402138;28;656783;-67
2022/05/20 11:54:27;;;;;;;6.25;2.00;;;25.80;1.00;;;;;;4377707;28;657375;-67
2022/05/20 11:57:18;;;;;;;5.15;1.85;;;26.60;1.00;;;;;;4415332;28;656717;-67
2022/05/20 12:00:07;;;;;;;8.02;1.88;;;26.50;1.00;;;;;;4376777;28;656775;-67
2022/05/20 12:02:56;;;;;;;2.58;1.70;;;26.20;1.00;;;;;;4419617;28;656294;-67
2022/05/20 12:05:46;;;;;;;8.25;1.90;;;26.30;1.00;;;;;;4400530;28;656868;-67
2022/05/20 12:08:51;;;;;;;2.15;1.65;;;26.60;1.00;;;;;;4396231;28;657056;-67
2022/05/20 12:11:41;;;;;;;6.13;2.05;;;25.90;1.00;;;;;;4395248;28;656741;-67
2022/05/20 12:14:30;;;;;;;5.82;2.08;;;26.50;1.00;;;;;;4396501;28;657504;-68
2022/05/20 12:17:18;;;;;;;3.70;2.13;;;26.30;1.00;;;;;;4399939;28;657567;-67
2022/05/20 12:26:48;;;;;;;7.38;1.70;;;26.50;1.00;;;;;;4313954;28;657093;-67
2022/05/20 12:29:59;;;;;;;7.18;1.70;;;26.70;1.00;;;;;;4384638;28;656496;-67
2022/05/20 12:32:48;;;;;;;5.85;1.80;;;26.80;1.00;;;;;;4390644;28;656166;-67
2022/05/20 12:35:35;;;;;;;3.40;1.65;;;26.10;1.00;;;;;;4409798;28;656753;-67
2022/05/20 12:38:24;;;;;;;5.93;1.70;;;25.80;1.00;;;;;;4418699;28;656917;-67
2022/05/20 12:41:19;;;;;;;5.70;1.80;;;26.00;1.00;;;;;;4388461;28;656653;-66
2022/05/20 12:44:32;;;;;;;6.53;2.20;;;26.40;1.00;;;;;;4351627;28;656899;-67
2022/05/20 12:47:28;;;;;;;7.22;1.85;;;26.40;1.00;;;;;;4400699;28;656680;-67
2022/05/20 12:50:22;;;;;;;5.75;2.13;;;26.50;1.00;;;;;;4378180;28;656864;-67
2022/05/20 12:53:11;;;;;;;3.50;1.70;;;26.60;1.00;;;;;;4398885;28;656537;-67
2022/05/20 12:55:58;;;;;;;5.05;2.00;;;27.00;1.00;;;;;;4398378;28;657287;-68
2022/05/20 12:58:45;;;;;;;3.85;1.95;;;27.30;1.00;;;;;;4398579;28;657614;-67
2022/05/20 13:01:33;;;;;;;5.80;2.03;;;26.10;1.00;;;;;;4418597;28;657522;-67
2022/05/20 13:04:23;;;;;;;4.47;1.90;;;26.60;1.00;;;;;;4410970;28;657218;-67
2022/05/20 13:07:13;;;;;;;2.47;1.33;;;27.00;1.00;;;;;;4399524;28;657616;-67
2022/05/20 13:10:00;;;;;;;7.20;1.60;;;26.20;1.00;;;;;;4399031;28;656321;-67
2022/05/20 13:12:49;;;;;;;5.00;1.65;;;27.10;1.00;;;;;;4425923;28;656614;-67
2022/05/20 13:15:40;;;;;;;2.63;1.75;;;26.50;1.00;;;;;;4399527;28;656341;-67
2022/05/20 13:18:28;;;;;;;6.75;2.10;;;26.00;1.00;;;;;;4388123;28;657768;-67
2022/05/20 13:21:19;;;;;;;5.47;1.80;;;26.80;1.00;;;;;;4401664;28;656363;-67
2022/05/20 13:24:13;;;;;;;2.78;1.70;;;27.00;1.00;;;;;;4396949;28;656626;-67
2022/05/20 13:27:04;;;;;;;7.97;1.80;;;27.40;1.00;;;;;;4363899;28;657264;-67
2022/05/20 13:29:52;;;;;;;5.32;2.00;;;27.40;1.00;;;;;;4402471;28;656691;-67
2022/05/20 13:32:40;;;;;;;5.07;1.88;;;27.00;1.00;;;;;;4396685;28;657082;-68
2022/05/20 13:35:27;;;;;;;7.13;1.92;;;27.10;1.00;;;;;;4403211;28;658104;-68
2022/05/20 13:38:17;;;;;;;3.85;1.98;;;27.40;1.00;;;;;;4420170;28;657197;-67
2022/05/20 13:41:06;;;;;;;4.68;1.83;;;27.10;1.00;;;;;;4416404;28;656879;-67
2022/05/20 13:43:54;;;;;;;7.07;2.13;;;27.10;1.00;;;;;;4388244;28;657729;-67
2022/05/20 13:49:49;;;;;;;6.32;1.95;;;27.10;1.00;;;;;;4395699;28;657456;-67
2022/05/20 13:52:37;;;;;;;4.82;1.98;;;27.20;1.00;;;;;;4399205;28;656966;-67
2022/05/20 13:55:30;;;;;;;7.03;2.08;;;27.40;1.00;;;;;;4412884;28;656304;-67
2022/05/20 13:58:17;;;;;;;6.65;2.47;;;26.80;1.00;;;;;;4395863;28;656796;-68
2022/05/20 14:01:05;;;;;;;4.47;2.15;;;27.80;1.00;;;;;;4414809;28;656692;-67
2022/05/20 14:03:52;;;;;;;7.72;2.10;;;27.30;1.00;;;;;;4393899;28;658230;-67
2022/05/20 14:06:40;;;;;;;5.25;2.20;;;27.50;1.00;;;;;;4417731;28;656770;-67
2022/05/20 14:09:27;;;;;;;8.02;2.30;;;26.80;1.00;;;;;;4396614;28;656959;-67
2022/05/20 14:12:18;;;;;;;9.23;2.60;;;27.00;1.00;;;;;;4419133;28;656436;-67
2022/05/20 14:15:08;;;;;;;5.43;2.22;;;26.70;1.00;;;;;;4383360;28;656310;-67
2022/05/20 14:17:56;;;;;;;7.20;2.17;;;26.50;1.00;;;;;;4401991;28;656615;-67
2022/05/20 14:20:45;;;;;;;8.07;2.50;;;26.00;1.00;;;;;;4407507;28;656991;-67
2022/05/20 14:23:44;;;;;;;10.05;2.60;;;26.30;1.00;;;;;;4391538;28;657135;-67
2022/05/20 14:26:35;;;;;;;8.98;2.83;;;26.20;1.00;;;;;;4384386;28;658045;-67
2022/05/20 14:29:30;;;;;;;10.70;2.50;;;26.10;1.00;;;;;;4394043;28;657771;-67
2022/05/20 14:32:17;;;;;;;7.68;1.98;;;25.80;1.00;;;;;;4375851;28;658081;-67
2022/05/20 14:35:06;;;;;;;4.80;2.03;;;25.50;1.00;;;;;;4416404;28;656832;-67
2022/05/20 14:37:54;;;;;;;8.45;2.30;;;25.60;1.00;;;;;;4399118;28;658225;-67
2022/05/20 14:40:42;;;;;;;5.35;1.95;;;25.40;1.00;;;;;;4398212;28;657100;-67
2022/05/20 14:43:34;;;;;;;9.10;2.53;;;25.60;1.00;;;;;;4405264;28;657304;-68
2022/05/20 14:49:30;;;;;;;5.22;2.33;;;26.40;1.00;;;;;;4398859;28;656986;-68
2022/05/20 14:52:27;;;;;;;7.90;2.30;;;26.10;1.00;;;;;;4401215;28;657453;-67
2022/05/20 14:55:15;;;;;;;6.22;1.90;;;25.90;1.00;;;;;;4398778;28;657264;-67
2022/05/20 14:58:03;;;;;;;6.15;2.00;;;25.80;1.00;;;;;;4397126;28;658184;-67
2022/05/20 15:00:54;;;;;;;4.55;2.30;;;25.80;1.00;;;;;;4405276;28;656640;-67
2022/05/20 15:03:44;;;;;;;6.90;4.07;;;25.60;1.00;;;;;;4401346;28;656897;-67
2022/05/20 15:06:33;;;;;;;5.13;2.03;;;25.40;1.00;;;;;;4403675;28;657186;-67
2022/05/20 15:09:23;;;;;;;6.30;2.25;;;25.50;1.00;;;;;;4402929;28;656597;-67
2022/05/20 15:12:11;;;;;;;5.38;2.28;;;25.70;1.00;;;;;;4412740;28;656501;-67
2022/05/20 15:14:59;;;;;;;3.38;2.00;;;25.50;1.00;;;;;;4416067;28;656921;-67
2022/05/20 15:18:03;;;;;;;7.82;2.10;;;25.50;1.00;;;;;;4404397;28;657420;-67
2022/05/20 15:20:53;;;;;;;8.52;2.20;;;25.30;1.00;;;;;;4381788;28;656562;-67
2022/05/20 15:23:42;;;;;;;4.20;2.13;;;25.40;1.00;;;;;;4402203;28;657002;-67
2022/05/20 15:26:31;;;;;;;7.05;1.90;;;25.50;1.00;;;;;;4399965;28;656783;-68
2022/05/20 15:29:19;;;;;;;6.32;2.28;;;25.80;1.00;;;;;;4418095;28;657870;-67